Time;durP1;ratioP1;P1;durP2;ratioP2;P2;SDS_P1;SDS_P2;PMS_P1;PMS_P2;Temp;Humidity;BMP_temperature;BMP_pressure;BME280_temperature;BME280_humidity;BME280_pressure;Samples;Min_cycle;Max_cycle;Signal;HPM_P1;HPM_P2
2022/04/09 00:00:21;;;;;;;0.13;0.13;;;;;;;;;;5019725;28;20029;-78
2022/04/09 00:02:49;;;;;;;0.00;0.00;;;;;;;;;;5016020;28;20033;-77
2022/04/09 00:05:15;;;;;;;0.10;0.10;;;;;;;;;;5010861;28;20335;-77
2022/04/09 00:07:41;;;;;;;0.03;0.03;;;;;;;;;;5012766;28;20053;-78
2022/04/09 00:10:10;;;;;;;0.10;0.10;;;;;;;;;;5016478;28;20124;-77
2022/04/09 00:12:39;;;;;;;0.45;0.45;;;;;;;;;;5015763;28;20347;-78
2022/04/09 00:15:05;;;;;;;0.57;0.35;;;;;;;;;;5016268;28;20466;-78
2022/04/09 00:17:38;;;;;;;0.00;0.00;;;;;;;;;;5016685;28;20036;-77
2022/04/09 00:20:04;;;;;;;0.40;0.40;;;;;;;;;;5015787;28;20021;-77
2022/04/09 00:22:33;;;;;;;0.00;0.00;;;;;;;;;;5019820;28;20537;-77
2022/04/09 00:24:58;;;;;;;0.45;0.10;;;;;;;;;;5015765;28;20025;-77
2022/04/09 00:27:23;;;;;;;0.10;0.10;;;;;;;;;;5015211;28;20442;-77
2022/04/09 00:29:49;;;;;;;0.10;0.10;;;;;;;;;;5015290;28;20049;-77
2022/04/09 00:32:14;;;;;;;0.00;0.00;;;;;;;;;;5014330;28;20033;-77
2022/04/09 00:34:39;;;;;;;0.57;0.57;;;;;;;;;;5015568;28;20419;-77
2022/04/09 00:37:05;;;;;;;0.10;0.10;;;;;;;;;;5015277;28;20021;-77
2022/04/09 00:39:30;;;;;;;0.17;0.17;;;;;;;;;;5015710;28;20034;-77
2022/04/09 00:41:55;;;;;;;0.10;0.10;;;;;;;;;;5021554;28;20112;-77
2022/04/09 00:44:21;;;;;;;0.80;0.63;;;;;;;;;;5016013;28;20021;-77
2022/04/09 00:46:47;;;;;;;0.00;0.00;;;;;;;;;;5015223;28;20501;-76
2022/04/09 00:49:16;;;;;;;0.10;0.10;;;;;;;;;;5012636;28;20022;-77
2022/04/09 00:51:47;;;;;;;1.60;0.75;;;;;;;;;;5030953;28;20029;-77
2022/04/09 00:54:13;;;;;;;0.00;0.00;;;;;;;;;;5015317;28;20029;-77
2022/04/09 00:56:42;;;;;;;0.20;0.20;;;;;;;;;;5014858;28;20068;-78
2022/04/09 00:59:11;;;;;;;12.02;2.17;;;;;;;;;;5015015;28;20080;-78
2022/04/09 01:01:41;;;;;;;0.00;0.00;;;;;;;;;;5030174;28;20030;-80
2022/04/09 01:04:08;;;;;;;0.20;0.20;;;;;;;;;;5016904;28;20112;-78
2022/04/09 01:06:37;;;;;;;0.08;0.08;;;;;;;;;;5015748;28;20092;-78
2022/04/09 01:09:04;;;;;;;0.20;0.20;;;;;;;;;;5014908;28;20441;-79
2022/04/09 01:11:29;;;;;;;0.00;0.00;;;;;;;;;;5019308;28;20109;-78
2022/04/09 01:13:55;;;;;;;0.00;0.00;;;;;;;;;;5030796;28;20108;-78
2022/04/09 01:16:22;;;;;;;1.55;0.65;;;;;;;;;;5031397;28;20097;-79
2022/04/09 01:18:48;;;;;;;0.00;0.00;;;;;;;;;;5015402;28;20087;-78
2022/04/09 01:21:13;;;;;;;0.00;0.00;;;;;;;;;;5015380;28;20025;-78
2022/04/09 01:23:38;;;;;;;0.00;0.00;;;;;;;;;;5016156;28;20029;-77
2022/04/09 01:26:06;;;;;;;0.10;0.10;;;;;;;;;;5015272;28;20467;-78
2022/04/09 01:28:33;;;;;;;0.10;0.10;;;;;;;;;;5018830;28;20041;-77
2022/04/09 01:30:58;;;;;;;0.85;0.85;;;;;;;;;;5014025;28;20056;-77
2022/04/09 01:33:26;;;;;;;0.20;0.20;;;;;;;;;;5010270;28;20439;-78
2022/04/09 01:35:53;;;;;;;0.25;0.25;;;;;;;;;;5030739;28;20025;-78
2022/04/09 01:38:19;;;;;;;0.80;0.80;;;;;;;;;;4998139;28;20021;-78
2022/04/09 01:40:45;;;;;;;0.13;0.13;;;;;;;;;;5014935;28;20022;-78
2022/04/09 01:43:10;;;;;;;3.15;1.10;;;;;;;;;;5015409;28;20026;-78
2022/04/09 01:45:36;;;;;;;0.08;0.08;;;;;;;;;;5018502;28;20108;-76
2022/04/09 01:48:04;;;;;;;0.30;0.30;;;;;;;;;;5015576;28;20041;-78
2022/04/09 01:50:32;;;;;;;0.65;0.65;;;;;;;;;;5012916;28;20116;-78
2022/04/09 01:52:57;;;;;;;0.77;0.77;;;;;;;;;;5015085;28;20029;-78
2022/04/09 01:55:23;;;;;;;0.20;0.13;;;;;;;;;;5014645;28;20026;-78
2022/04/09 01:57:49;;;;;;;0.00;0.00;;;;;;;;;;5014844;28;20084;-78
2022/04/09 02:00:16;;;;;;;0.00;0.00;;;;;;;;;;5013649;28;20059;-78
2022/04/09 02:02:42;;;;;;;0.00;0.00;;;;;;;;;;5014645;28;20025;-78
2022/04/09 02:05:08;;;;;;;0.25;0.25;;;;;;;;;;5013314;28;20030;-77
2022/04/09 02:07:35;;;;;;;0.00;0.00;;;;;;;;;;5013372;28;20022;-77
2022/04/09 02:10:02;;;;;;;0.10;0.10;;;;;;;;;;5012713;28;20049;-76
2022/04/09 02:12:31;;;;;;;1.02;0.98;;;;;;;;;;5014591;28;20096;-78
2022/04/09 02:14:56;;;;;;;0.15;0.15;;;;;;;;;;5014602;28;20115;-78
2022/04/09 02:17:21;;;;;;;0.45;0.45;;;;;;;;;;5014666;28;20455;-78
2022/04/09 02:19:46;;;;;;;0.52;0.52;;;;;;;;;;5014599;28;20454;-78
2022/04/09 02:22:14;;;;;;;1.55;0.85;;;;;;;;;;5014476;28;20105;-78
2022/04/09 02:24:43;;;;;;;0.25;0.25;;;;;;;;;;5014837;28;20033;-78
2022/04/09 02:27:09;;;;;;;1.60;0.45;;;;;;;;;;5014767;28;20037;-77
2022/04/09 02:29:37;;;;;;;2.38;1.10;;;;;;;;;;5013544;28;20037;-79
2022/04/09 02:32:05;;;;;;;0.80;0.80;;;;;;;;;;5014357;28;20167;-77
2022/04/09 02:34:30;;;;;;;0.03;0.03;;;;;;;;;;5014413;28;20021;-78
2022/04/09 02:36:58;;;;;;;3.08;1.20;;;;;;;;;;5030209;28;20052;-78
2022/04/09 02:39:23;;;;;;;0.88;0.77;;;;;;;;;;5014241;28;20112;-78
2022/04/09 02:41:52;;;;;;;0.15;0.15;;;;;;;;;;5013994;28;20398;-77
2022/04/09 02:44:20;;;;;;;0.50;0.50;;;;;;;;;;4996778;28;20037;-77
2022/04/09 02:46:48;;;;;;;1.45;1.25;;;;;;;;;;5014270;28;20097;-77
2022/04/09 02:49:13;;;;;;;5.78;2.65;;;;;;;;;;5028706;28;20034;-78
2022/04/09 02:51:39;;;;;;;0.10;0.10;;;;;;;;;;5013046;28;20026;-77
2022/04/09 02:54:04;;;;;;;0.00;0.00;;;;;;;;;;5015897;28;20026;-79
2022/04/09 02:56:30;;;;;;;0.00;0.00;;;;;;;;;;5015433;28;20025;-78
2022/04/09 09:04:34;;;;;;;0.38;0.38;;;;;;;;;;5115466;23;20441;-77
2022/04/09 09:07:30;;;;;;;0.73;0.57;;;;;;;;;;4959505;28;20067;-76
2022/04/09 09:10:19;;;;;;;0.00;0.00;;;;;;;;;;4974290;28;20039;-76
2022/04/09 09:13:20;;;;;;;0.50;0.50;;;;;;;;;;4960578;28;20093;-78
2022/04/09 09:15:53;;;;;;;0.50;0.50;;;;;;;;;;4941137;28;20403;-77
2022/04/09 09:18:19;;;;;;;0.10;0.10;;;;;;;;;;4959912;28;20026;-77
2022/04/09 09:20:49;;;;;;;0.20;0.20;;;;;;;;;;4976832;28;20019;-78
2022/04/09 09:23:30;;;;;;;1.88;0.73;;;;;;;;;;4952637;28;20033;-78
2022/04/09 09:25:59;;;;;;;0.10;0.10;;;;;;;;;;4995661;28;20030;-77
2022/04/09 09:28:29;;;;;;;0.20;0.20;;;;;;;;;;4978478;28;20084;-76
2022/04/09 09:30:58;;;;;;;0.10;0.10;;;;;;;;;;4984054;28;20026;-76
2022/04/09 09:33:25;;;;;;;0.95;0.70;;;;;;;;;;4982649;28;20480;-76
2022/04/09 09:35:52;;;;;;;0.32;0.32;;;;;;;;;;4977489;28;20030;-76
2022/04/09 09:38:19;;;;;;;0.10;0.10;;;;;;;;;;4995300;28;20519;-77
2022/04/09 09:40:47;;;;;;;0.00;0.00;;;;;;;;;;4995305;28;20038;-76
2022/04/09 09:43:16;;;;;;;0.30;0.30;;;;;;;;;;4974809;28;20110;-77
2022/04/09 09:45:43;;;;;;;0.20;0.20;;;;;;;;;;4995427;28;20034;-77
2022/04/09 09:48:22;;;;;;;0.00;0.00;;;;;;;;;;4978357;28;20034;-77
2022/04/09 09:50:50;;;;;;;0.00;0.00;;;;;;;;;;4978113;28;20026;-75
2022/04/09 09:53:15;;;;;;;0.08;0.08;;;;;;;;;;4980868;28;20041;-76
2022/04/09 09:55:46;;;;;;;0.47;0.20;;;;;;;;;;4978243;28;20022;-76
2022/04/09 09:58:20;;;;;;;0.10;0.10;;;;;;;;;;4995476;28;20030;-77
2022/04/09 10:00:49;;;;;;;0.28;0.28;;;;;;;;;;4962903;28;20473;-77
2022/04/09 10:03:14;;;;;;;0.15;0.08;;;;;;;;;;4991512;28;20428;-77
2022/04/09 10:05:40;;;;;;;0.05;0.05;;;;;;;;;;4995259;28;20038;-77
2022/04/09 10:08:07;;;;;;;0.30;0.30;;;;;;;;;;4978607;28;20093;-78
2022/04/09 10:10:38;;;;;;;0.00;0.00;;;;;;;;;;4980916;28;20023;-77
2022/04/09 10:13:04;;;;;;;0.00;0.00;;;;;;;;;;4928973;29;20043;-77
2022/04/09 10:15:33;;;;;;;1.20;0.20;;;;;;;;;;4917749;29;20119;-77
2022/04/09 10:18:00;;;;;;;0.10;0.10;;;;;;;;;;4917493;29;20111;-78
2022/04/09 10:20:29;;;;;;;0.10;0.10;;;;;;;;;;4918070;29;20107;-77
2022/04/09 10:23:00;;;;;;;0.10;0.10;;;;;;;;;;4917588;29;20122;-77
2022/04/09 10:25:28;;;;;;;0.10;0.10;;;;;;;;;;4918395;29;20509;-76
2022/04/09 10:27:59;;;;;;;1.13;0.32;;;;;;;;;;4917630;29;20028;-77
2022/04/09 10:30:25;;;;;;;0.10;0.10;;;;;;;;;;4917249;29;20366;-76
2022/04/09 10:32:59;;;;;;;0.50;0.50;;;;;;;;;;4917787;29;20064;-76
2022/04/09 10:35:28;;;;;;;0.88;0.47;;;;;;;;;;4917186;29;20028;-78
2022/04/09 10:38:42;;;;;;;0.55;0.55;;;;;;;;;;4916175;29;20020;-79
2022/04/09 10:41:12;;;;;;;0.00;0.00;;;;;;;;;;4881187;29;20106;-79
2022/04/09 10:43:46;;;;;;;2.40;0.43;;;;;;;;;;4896322;29;20060;-79
2022/04/09 10:46:19;;;;;;;0.65;0.60;;;;;;;;;;4897855;29;20043;-79
2022/04/09 10:48:44;;;;;;;0.10;0.10;;;;;;;;;;4880772;29;20105;-75
2022/04/09 10:51:14;;;;;;;0.10;0.10;;;;;;;;;;4880599;29;20116;-75
2022/04/09 10:53:42;;;;;;;0.32;0.28;;;;;;;;;;4865095;29;20503;-78
2022/04/09 10:56:34;;;;;;;0.10;0.10;;;;;;;;;;4895918;29;20055;-79
2022/04/09 10:59:16;;;;;;;0.03;0.03;;;;;;;;;;4891559;29;20040;-79
2022/04/09 11:01:53;;;;;;;0.10;0.10;;;;;;;;;;4896225;29;20051;-78
2022/04/09 11:04:27;;;;;;;0.40;0.40;;;;;;;;;;4873217;29;20104;-76
2022/04/09 11:07:17;;;;;;;1.20;0.63;;;;;;;;;;4888306;29;20043;-78
2022/04/09 11:09:58;;;;;;;0.43;0.20;;;;;;;;;;4882440;29;20359;-78
2022/04/09 11:12:29;;;;;;;0.13;0.13;;;;;;;;;;4867983;29;20421;-75
2022/04/09 11:14:55;;;;;;;0.43;0.43;;;;;;;;;;4891888;29;20049;-82
2022/04/09 11:17:23;;;;;;;0.73;0.50;;;;;;;;;;4902267;29;20048;-77
2022/04/09 11:19:51;;;;;;;0.00;0.00;;;;;;;;;;4901113;29;20038;-78
2022/04/09 11:22:17;;;;;;;0.00;0.00;;;;;;;;;;4890499;29;20025;-78
2022/04/09 11:24:46;;;;;;;0.15;0.08;;;;;;;;;;4907851;29;20095;-78
2022/04/09 11:27:11;;;;;;;0.00;0.00;;;;;;;;;;4901386;29;20071;-79
2022/04/09 11:29:40;;;;;;;0.00;0.00;;;;;;;;;;4904161;29;20061;-77
2022/04/09 11:32:08;;;;;;;0.00;0.00;;;;;;;;;;4912385;29;20383;-78
2022/04/09 11:34:53;;;;;;;0.10;0.10;;;;;;;;;;4898835;29;20514;-78
2022/04/09 11:37:26;;;;;;;0.05;0.05;;;;;;;;;;4901710;29;20336;-76
2022/04/09 11:39:52;;;;;;;0.00;0.00;;;;;;;;;;4891724;29;20087;-78
2022/04/09 11:42:20;;;;;;;0.10;0.10;;;;;;;;;;4885120;29;20388;-78
2022/04/09 11:44:45;;;;;;;0.00;0.00;;;;;;;;;;4894760;29;20084;-77
2022/04/09 11:47:17;;;;;;;0.00;0.00;;;;;;;;;;4897778;29;20028;-77
2022/04/09 11:49:52;;;;;;;0.00;0.00;;;;;;;;;;4900644;29;20040;-79
2022/04/09 11:52:28;;;;;;;0.00;0.00;;;;;;;;;;4897509;29;20032;-79
2022/04/09 11:54:56;;;;;;;1.45;1.00;;;;;;;;;;4885725;29;20056;-82
2022/04/09 11:57:30;;;;;;;0.00;0.00;;;;;;;;;;4884812;29;20048;-80
2022/04/09 11:59:58;;;;;;;0.10;0.10;;;;;;;;;;4900584;29;20035;-81
2022/04/09 12:02:25;;;;;;;0.10;0.10;;;;;;;;;;4897996;29;20538;-79
2022/04/09 12:04:52;;;;;;;0.15;0.15;;;;;;;;;;4906535;29;20032;-83
2022/04/09 12:07:18;;;;;;;0.05;0.05;;;;;;;;;;4904008;29;20029;-79
2022/04/09 12:09:43;;;;;;;0.00;0.00;;;;;;;;;;4887590;29;20029;-78
2022/04/09 12:12:11;;;;;;;1.45;0.90;;;;;;;;;;4913074;29;20042;-78
2022/04/09 12:14:51;;;;;;;0.10;0.10;;;;;;;;;;4938756;29;20106;-79
2022/04/09 12:17:22;;;;;;;0.17;0.17;;;;;;;;;;4922217;29;20119;-78
2022/04/09 12:19:48;;;;;;;0.10;0.10;;;;;;;;;;4920837;29;20450;-79
2022/04/09 12:22:19;;;;;;;0.00;0.00;;;;;;;;;;4921123;29;20371;-78
2022/04/09 12:24:55;;;;;;;0.00;0.00;;;;;;;;;;4919671;29;20048;-78
2022/04/09 12:27:40;;;;;;;0.85;0.50;;;;;;;;;;4929720;29;20040;-78
2022/04/09 12:30:05;;;;;;;0.40;0.17;;;;;;;;;;4939148;29;20454;-78
2022/04/09 12:32:33;;;;;;;0.10;0.10;;;;;;;;;;4921283;29;20072;-78
2022/04/09 12:35:10;;;;;;;0.05;0.00;;;;;;;;;;4939426;29;20023;-78
2022/04/09 12:38:02;;;;;;;1.38;0.63;;;;;;;;;;4936104;29;20457;-78
2022/04/09 12:40:29;;;;;;;0.63;0.57;;;;;;;;;;4921245;29;20108;-79
2022/04/09 12:42:55;;;;;;;0.20;0.20;;;;;;;;;;4938582;29;20023;-78
2022/04/09 12:45:29;;;;;;;0.30;0.30;;;;;;;;;;4920294;29;20175;-78
2022/04/09 12:48:01;;;;;;;0.10;0.10;;;;;;;;;;4919602;29;20087;-77
2022/04/09 12:50:31;;;;;;;;;;;;;;;;;;4935991;29;20034;-78
2022/04/09 12:52:58;;;;;;;0.22;0.20;;;;;;;;;;4928466;29;20272;-78
2022/04/09 12:55:25;;;;;;;0.10;0.10;;;;;;;;;;4922236;29;20032;-77
2022/04/09 12:57:51;;;;;;;0.10;0.10;;;;;;;;;;4919989;29;20028;-77
2022/04/09 13:00:20;;;;;;;0.00;0.00;;;;;;;;;;4935364;29;20337;-77
2022/04/09 13:02:49;;;;;;;0.00;0.00;;;;;;;;;;4935995;29;20016;-78
2022/04/09 13:05:19;;;;;;;0.00;0.00;;;;;;;;;;4920060;29;20031;-77
2022/04/09 13:07:45;;;;;;;0.17;0.17;;;;;;;;;;4918883;29;20055;-78
2022/04/09 13:10:13;;;;;;;0.45;0.45;;;;;;;;;;4926319;29;20043;-77
2022/04/09 13:12:41;;;;;;;0.00;0.00;;;;;;;;;;4922464;29;20043;-77
2022/04/09 13:15:07;;;;;;;0.05;0.05;;;;;;;;;;4936876;29;20060;-77
2022/04/09 13:17:36;;;;;;;0.00;0.00;;;;;;;;;;4926494;29;20570;-77
2022/04/09 13:20:06;;;;;;;0.38;0.38;;;;;;;;;;4923241;29;20115;-79
2022/04/09 13:22:31;;;;;;;0.65;0.65;;;;;;;;;;4924861;29;20512;-78
2022/04/09 13:24:59;;;;;;;0.20;0.20;;;;;;;;;;4937688;29;20047;-77
2022/04/09 13:27:25;;;;;;;0.00;0.00;;;;;;;;;;4936123;29;20119;-77
2022/04/09 13:29:51;;;;;;;0.40;0.38;;;;;;;;;;4936818;29;20122;-77
2022/04/09 13:32:17;;;;;;;0.08;0.08;;;;;;;;;;4932342;29;20035;-78
2022/04/09 13:34:45;;;;;;;0.10;0.10;;;;;;;;;;4935130;29;20031;-78
2022/04/09 13:37:13;;;;;;;0.00;0.00;;;;;;;;;;4936272;29;20049;-77
2022/04/09 13:39:38;;;;;;;1.33;0.55;;;;;;;;;;4935733;29;20031;-77
2022/04/09 13:42:10;;;;;;;0.10;0.10;;;;;;;;;;4932782;29;20027;-78
2022/04/09 13:44:38;;;;;;;0.10;0.10;;;;;;;;;;4917926;29;20067;-78
2022/04/09 13:47:07;;;;;;;0.00;0.00;;;;;;;;;;4925133;29;20028;-77
2022/04/09 13:49:34;;;;;;;0.00;0.00;;;;;;;;;;4923317;29;20113;-77
2022/04/09 13:52:03;;;;;;;0.10;0.10;;;;;;;;;;4936065;29;20073;-76
2022/04/09 13:54:31;;;;;;;0.03;0.03;;;;;;;;;;4917181;29;20488;-78
2022/04/09 13:56:56;;;;;;;0.00;0.00;;;;;;;;;;4921233;29;20182;-77
2022/04/09 13:59:22;;;;;;;0.00;0.00;;;;;;;;;;4932215;29;20123;-77
2022/04/09 14:01:55;;;;;;;0.10;0.10;;;;;;;;;;4936698;29;20401;-77
2022/04/09 14:04:20;;;;;;;0.00;0.00;;;;;;;;;;4923297;29;20426;-78
2022/04/09 14:06:48;;;;;;;0.30;0.30;;;;;;;;;;4918700;29;20060;-78
2022/04/09 14:09:13;;;;;;;6.82;0.65;;;;;;;;;;4921470;29;20060;-78
2022/04/09 14:11:41;;;;;;;0.00;0.00;;;;;;;;;;4928808;29;20031;-79
2022/04/09 14:14:07;;;;;;;0.00;0.00;;;;;;;;;;4925173;29;20028;-77
2022/04/09 14:16:34;;;;;;;0.10;0.10;;;;;;;;;;4921781;29;20028;-79
2022/04/09 14:18:59;;;;;;;0.00;0.00;;;;;;;;;;4940067;29;20086;-78
2022/04/09 14:21:28;;;;;;;0.65;0.57;;;;;;;;;;4937115;29;20036;-79
2022/04/09 14:23:53;;;;;;;0.52;0.52;;;;;;;;;;4936450;29;20012;-79
2022/04/09 14:26:21;;;;;;;5.68;0.40;;;;;;;;;;4931685;29;20054;-79
2022/04/09 14:28:55;;;;;;;0.20;0.08;;;;;;;;;;4936087;29;20023;-80
2022/04/09 14:31:25;;;;;;;0.00;0.00;;;;;;;;;;4936029;29;20043;-84
2022/04/09 14:33:51;;;;;;;0.00;0.00;;;;;;;;;;4936263;29;20063;-85
2022/04/09 14:36:18;;;;;;;0.10;0.10;;;;;;;;;;4935457;29;20350;-81
2022/04/09 14:38:48;;;;;;;0.17;0.17;;;;;;;;;;4933858;29;20040;-80
2022/04/09 14:41:14;;;;;;;0.00;0.00;;;;;;;;;;4936620;29;20122;-81
2022/04/09 14:43:39;;;;;;;0.55;0.35;;;;;;;;;;4936026;29;20326;-79
2022/04/09 14:46:05;;;;;;;0.00;0.00;;;;;;;;;;4936486;29;20039;-78
2022/04/09 14:48:31;;;;;;;0.10;0.10;;;;;;;;;;4937005;29;20171;-78
2022/04/09 14:50:57;;;;;;;0.00;0.00;;;;;;;;;;4936521;29;20038;-79
2022/04/09 14:53:22;;;;;;;0.00;0.00;;;;;;;;;;4935958;29;20032;-79
2022/04/09 14:55:47;;;;;;;0.10;0.10;;;;;;;;;;4937055;29;20027;-78
2022/04/09 14:58:15;;;;;;;0.38;0.28;;;;;;;;;;4925132;29;20075;-78
2022/04/09 15:00:43;;;;;;;0.00;0.00;;;;;;;;;;4933044;29;20040;-78
2022/04/09 15:03:09;;;;;;;0.00;0.00;;;;;;;;;;4931175;29;20468;-76
2022/04/09 15:05:34;;;;;;;0.05;0.05;;;;;;;;;;4933646;29;20031;-77
2022/04/09 15:08:02;;;;;;;0.10;0.10;;;;;;;;;;4936133;29;20043;-77
2022/04/09 15:10:29;;;;;;;0.25;0.25;;;;;;;;;;4936535;29;20032;-77
2022/04/09 15:12:54;;;;;;;0.00;0.00;;;;;;;;;;4935706;29;20032;-76
2022/04/09 15:15:19;;;;;;;0.00;0.00;;;;;;;;;;4935802;29;20481;-77
2022/04/09 15:17:47;;;;;;;0.00;0.00;;;;;;;;;;4935880;29;20106;-77
2022/04/09 15:20:15;;;;;;;0.00;0.00;;;;;;;;;;4932607;29;20178;-78
2022/04/09 15:22:40;;;;;;;0.03;0.03;;;;;;;;;;4932740;29;20082;-78
2022/04/09 15:25:06;;;;;;;0.00;0.00;;;;;;;;;;4935328;29;20460;-77
2022/04/09 15:27:32;;;;;;;0.43;0.30;;;;;;;;;;4936023;29;20596;-77
2022/04/09 15:29:57;;;;;;;0.25;0.20;;;;;;;;;;4936078;29;20457;-78
2022/04/09 15:32:23;;;;;;;0.73;0.30;;;;;;;;;;4935051;29;20365;-77
2022/04/09 15:34:48;;;;;;;0.00;0.00;;;;;;;;;;4923211;29;20027;-76
2022/04/09 15:37:16;;;;;;;0.10;0.10;;;;;;;;;;4935341;29;20043;-78
2022/04/09 15:39:41;;;;;;;0.08;0.08;;;;;;;;;;4935296;29;20047;-77
2022/04/09 15:42:10;;;;;;;0.68;0.40;;;;;;;;;;4934726;29;20373;-77
2022/04/09 15:44:35;;;;;;;4.82;1.00;;;;;;;;;;4935604;29;20031;-77
2022/04/09 15:47:03;;;;;;;1.20;1.08;;;;;;;;;;4935783;29;20034;-76
2022/04/09 15:49:29;;;;;;;0.10;0.10;;;;;;;;;;4922064;29;20043;-77
2022/04/09 15:51:54;;;;;;;0.80;0.63;;;;;;;;;;4931483;29;20020;-77
2022/04/09 15:54:19;;;;;;;0.00;0.00;;;;;;;;;;4933125;29;20426;-76
2022/04/09 15:56:46;;;;;;;0.05;0.05;;;;;;;;;;4927910;29;20023;-77
2022/04/09 15:59:13;;;;;;;0.00;0.00;;;;;;;;;;4920697;29;20127;-77
2022/04/09 16:01:39;;;;;;;0.00;0.00;;;;;;;;;;4931303;29;20055;-77
2022/04/09 16:04:06;;;;;;;0.00;0.00;;;;;;;;;;4933769;29;20171;-78
2022/04/09 16:06:32;;;;;;;0.00;0.00;;;;;;;;;;4933082;29;20461;-78
2022/04/09 16:08:57;;;;;;;0.20;0.10;;;;;;;;;;4929125;29;20035;-78
2022/04/09 16:11:25;;;;;;;0.00;0.00;;;;;;;;;;4939705;29;20359;-79
2022/04/09 16:13:52;;;;;;;1.40;0.63;;;;;;;;;;4924106;29;20048;-78
2022/04/09 16:16:20;;;;;;;0.00;0.00;;;;;;;;;;4936263;29;20037;-79
2022/04/09 16:18:50;;;;;;;0.00;0.00;;;;;;;;;;4935558;29;20031;-79
2022/04/09 16:21:20;;;;;;;0.00;0.00;;;;;;;;;;4920986;29;20032;-79
2022/04/09 16:23:49;;;;;;;0.10;0.10;;;;;;;;;;4933359;29;20434;-78
2022/04/09 16:26:16;;;;;;;0.65;0.10;;;;;;;;;;4931862;29;20063;-79
2022/04/09 16:28:41;;;;;;;0.00;0.00;;;;;;;;;;4937905;29;20087;-79
2022/04/09 16:31:07;;;;;;;0.00;0.00;;;;;;;;;;4938429;29;20031;-78
2022/04/09 16:33:32;;;;;;;0.40;0.20;;;;;;;;;;4927589;29;20035;-79
2022/04/09 16:35:58;;;;;;;0.17;0.17;;;;;;;;;;4926330;29;20458;-79
2022/04/09 16:38:25;;;;;;;0.10;0.10;;;;;;;;;;4928236;29;20042;-81
2022/04/09 16:40:53;;;;;;;1.08;0.98;;;;;;;;;;4940597;29;20023;-77
2022/04/09 16:43:26;;;;;;;0.10;0.10;;;;;;;;;;4938977;29;20058;-77
2022/04/09 16:45:52;;;;;;;0.05;0.05;;;;;;;;;;4931634;29;20039;-78
2022/04/09 16:48:20;;;;;;;0.52;0.30;;;;;;;;;;4939137;29;20346;-77
2022/04/09 16:50:48;;;;;;;0.20;0.20;;;;;;;;;;4926554;29;20043;-77
2022/04/09 16:53:13;;;;;;;0.57;0.57;;;;;;;;;;4933192;29;20596;-77
2022/04/09 16:55:39;;;;;;;0.10;0.10;;;;;;;;;;4928068;29;20055;-78
2022/04/09 16:58:05;;;;;;;0.00;0.00;;;;;;;;;;4934551;29;20453;-78
2022/04/09 17:00:32;;;;;;;0.47;0.47;;;;;;;;;;4939161;29;20042;-79
2022/04/09 17:02:58;;;;;;;0.00;0.00;;;;;;;;;;4936810;29;20020;-79
2022/04/09 17:05:24;;;;;;;11.48;0.70;;;;;;;;;;4931476;29;20028;-79
2022/04/09 17:07:50;;;;;;;0.45;0.45;;;;;;;;;;4933284;29;20045;-78
2022/04/09 17:10:16;;;;;;;0.10;0.10;;;;;;;;;;4930009;29;20027;-78
2022/04/09 17:12:46;;;;;;;0.20;0.20;;;;;;;;;;4935845;29;20041;-79
2022/04/09 17:15:15;;;;;;;0.00;0.00;;;;;;;;;;4938910;29;20353;-78
2022/04/09 17:17:40;;;;;;;0.35;0.35;;;;;;;;;;4935959;29;20019;-83
2022/04/09 17:20:06;;;;;;;0.50;0.50;;;;;;;;;;4921723;29;20031;-83
2022/04/09 17:22:32;;;;;;;0.73;0.73;;;;;;;;;;4921714;29;20106;-83
2022/04/09 17:24:57;;;;;;;0.10;0.10;;;;;;;;;;4934846;29;20639;-84
2022/04/09 17:27:23;;;;;;;0.00;0.00;;;;;;;;;;4931998;29;20031;-84
2022/04/09 17:29:48;;;;;;;0.38;0.38;;;;;;;;;;4925472;29;20330;-83
2022/04/09 17:32:13;;;;;;;0.00;0.00;;;;;;;;;;4937503;29;20024;-80
2022/04/09 17:34:39;;;;;;;0.00;0.00;;;;;;;;;;4936055;29;20066;-84
2022/04/09 17:37:05;;;;;;;0.30;0.30;;;;;;;;;;4937250;29;20046;-83
2022/04/09 17:39:31;;;;;;;1.25;0.80;;;;;;;;;;4928924;29;20071;-82
2022/04/09 17:41:56;;;;;;;0.28;0.28;;;;;;;;;;4926410;29;20036;-83
2022/04/09 17:44:21;;;;;;;0.10;0.10;;;;;;;;;;4930141;29;20346;-83
2022/04/09 17:47:10;;;;;;;0.00;0.00;;;;;;;;;;4932697;29;20179;-82
2022/04/09 17:52:21;;;;;;;0.00;0.00;;;;;;;;;;4926544;29;20039;-84
2022/04/09 17:54:47;;;;;;;0.00;0.00;;;;;;;;;;4929499;29;20190;-82
2022/04/09 17:57:12;;;;;;;0.20;0.20;;;;;;;;;;4930477;29;20032;-87
2022/04/09 17:59:40;;;;;;;0.17;0.17;;;;;;;;;;4925033;29;20027;-81
2022/04/09 18:02:05;;;;;;;0.00;0.00;;;;;;;;;;4922734;29;20361;-83
2022/04/09 18:04:31;;;;;;;1.08;0.43;;;;;;;;;;4928801;29;20020;-83
2022/04/09 18:06:58;;;;;;;0.00;0.00;;;;;;;;;;4918480;29;20527;-83
2022/04/09 18:09:24;;;;;;;0.00;0.00;;;;;;;;;;4932834;29;20368;-85
2022/04/09 18:11:51;;;;;;;0.65;0.50;;;;;;;;;;4920936;29;20032;-82
2022/04/09 18:14:17;;;;;;;0.03;0.03;;;;;;;;;;4939004;29;20031;-85
2022/04/09 18:16:45;;;;;;;0.20;0.20;;;;;;;;;;4929733;29;20370;-84
2022/04/09 18:19:10;;;;;;;0.20;0.20;;;;;;;;;;4919390;29;20087;-84
2022/04/09 18:21:35;;;;;;;0.55;0.55;;;;;;;;;;4933148;29;20386;-83
2022/04/09 18:24:01;;;;;;;2.50;0.85;;;;;;;;;;4922020;29;20048;-83
2022/04/09 18:26:29;;;;;;;0.10;0.10;;;;;;;;;;4933027;29;20512;-84
2022/04/09 18:28:55;;;;;;;0.43;0.35;;;;;;;;;;4922730;29;20401;-83
2022/04/09 18:31:30;;;;;;;0.00;0.00;;;;;;;;;;4920303;29;20036;-83
2022/04/09 18:34:00;;;;;;;0.00;0.00;;;;;;;;;;4931678;29;20028;-82
2022/04/09 18:36:26;;;;;;;1.48;0.50;;;;;;;;;;4936007;29;20536;-84
2022/04/09 18:39:00;;;;;;;0.00;0.00;;;;;;;;;;4924032;29;20092;-83
2022/04/09 18:41:29;;;;;;;0.20;0.20;;;;;;;;;;4920010;29;20470;-83
2022/04/09 18:43:54;;;;;;;3.30;0.60;;;;;;;;;;4918522;29;20484;-84
2022/04/09 18:46:26;;;;;;;0.40;0.40;;;;;;;;;;4934130;29;20032;-83
2022/04/09 18:48:52;;;;;;;0.00;0.00;;;;;;;;;;4924004;29;20031;-82
2022/04/09 18:51:20;;;;;;;0.00;0.00;;;;;;;;;;4917165;29;20167;-83
2022/04/09 18:53:50;;;;;;;0.03;0.03;;;;;;;;;;4917342;29;20520;-84
2022/04/09 18:56:16;;;;;;;0.40;0.30;;;;;;;;;;4919228;29;20036;-84
2022/04/09 18:58:42;;;;;;;0.00;0.00;;;;;;;;;;4938772;29;20384;-84
2022/04/09 19:01:07;;;;;;;0.00;0.00;;;;;;;;;;4940725;29;20514;-84
2022/04/09 19:03:35;;;;;;;0.10;0.10;;;;;;;;;;4921228;29;20015;-83
2022/04/09 19:06:01;;;;;;;0.88;0.88;;;;;;;;;;4937227;29;20040;-84
2022/04/09 19:08:33;;;;;;;0.03;0.03;;;;;;;;;;4920216;29;20023;-80
2022/04/09 19:10:59;;;;;;;;;;;;;;;;;;4921692;29;20040;-84
2022/04/09 19:13:24;;;;;;;0.00;0.00;;;;;;;;;;4917763;29;19971;-82
2022/04/09 19:15:49;;;;;;;0.00;0.00;;;;;;;;;;4916855;29;20218;-85
2022/04/09 19:18:15;;;;;;;0.10;0.10;;;;;;;;;;4917159;29;20070;-83
2022/04/09 19:20:43;;;;;;;0.00;0.00;;;;;;;;;;4928518;29;20031;-82
2022/04/09 19:23:14;;;;;;;0.30;0.30;;;;;;;;;;4933153;29;20405;-85
2022/04/09 19:25:42;;;;;;;0.13;0.13;;;;;;;;;;4919420;29;20028;-84
2022/04/09 19:28:10;;;;;;;0.70;0.38;;;;;;;;;;4921928;29;20095;-84
2022/04/09 19:30:38;;;;;;;0.22;0.22;;;;;;;;;;4920861;29;20076;-83
2022/04/09 19:33:03;;;;;;;0.00;0.00;;;;;;;;;;4927332;29;20043;-83
2022/04/09 19:35:29;;;;;;;0.30;0.30;;;;;;;;;;4925024;29;20024;-84
2022/04/09 19:37:56;;;;;;;0.93;0.68;;;;;;;;;;4940423;29;20399;-82
2022/04/09 19:40:24;;;;;;;0.10;0.08;;;;;;;;;;4921599;29;20032;-82
2022/04/09 19:42:49;;;;;;;0.00;0.00;;;;;;;;;;4928665;29;20114;-83
2022/04/09 19:45:17;;;;;;;0.20;0.20;;;;;;;;;;4940022;29;20071;-83
2022/04/09 19:47:43;;;;;;;0.10;0.10;;;;;;;;;;4939617;29;20042;-83
2022/04/09 19:50:09;;;;;;;0.40;0.15;;;;;;;;;;4931470;29;20024;-85
2022/04/09 19:52:36;;;;;;;0.00;0.00;;;;;;;;;;4925248;29;20390;-83
2022/04/09 19:55:02;;;;;;;0.00;0.00;;;;;;;;;;4940306;29;20031;-84
2022/04/09 19:57:27;;;;;;;0.10;0.10;;;;;;;;;;4940210;29;20024;-83
2022/04/09 19:59:52;;;;;;;0.25;0.25;;;;;;;;;;4925507;29;20034;-85
2022/04/09 20:02:23;;;;;;;0.00;0.00;;;;;;;;;;4905067;29;20100;-85
2022/04/09 20:04:52;;;;;;;0.00;0.00;;;;;;;;;;4941964;29;20031;-84
2022/04/09 20:07:18;;;;;;;0.00;0.00;;;;;;;;;;4943882;29;20449;-82
2022/04/09 20:09:46;;;;;;;0.20;0.20;;;;;;;;;;4940079;29;20035;-82
2022/04/09 20:12:14;;;;;;;0.13;0.13;;;;;;;;;;4939042;29;20050;-82
2022/04/09 20:14:40;;;;;;;0.30;0.30;;;;;;;;;;4939811;29;20455;-83
2022/04/09 20:17:05;;;;;;;0.47;0.47;;;;;;;;;;4938805;29;20027;-85
2022/04/09 20:19:30;;;;;;;0.00;0.00;;;;;;;;;;4938852;29;20058;-82
2022/04/09 20:21:56;;;;;;;0.00;0.00;;;;;;;;;;4938402;29;20418;-83
2022/04/09 20:24:22;;;;;;;0.00;0.00;;;;;;;;;;4939667;29;20027;-83
2022/04/09 20:26:48;;;;;;;0.88;0.57;;;;;;;;;;4939784;29;20035;-84
2022/04/09 20:29:13;;;;;;;0.00;0.00;;;;;;;;;;4923138;29;20082;-83
2022/04/09 20:31:38;;;;;;;0.47;0.43;;;;;;;;;;4939388;29;20343;-84
2022/04/09 20:34:06;;;;;;;0.15;0.15;;;;;;;;;;4939026;29;20027;-84
2022/04/09 20:36:32;;;;;;;0.10;0.10;;;;;;;;;;4937781;29;20050;-83
2022/04/09 20:38:59;;;;;;;0.38;0.38;;;;;;;;;;4918858;29;20438;-85
2022/04/09 20:41:24;;;;;;;1.08;0.38;;;;;;;;;;4925195;29;20027;-80
2022/04/09 20:43:50;;;;;;;0.85;0.52;;;;;;;;;;4939618;29;20115;-83
2022/04/09 20:46:15;;;;;;;0.00;0.00;;;;;;;;;;4938507;29;20028;-84
2022/04/09 20:48:45;;;;;;;0.00;0.00;;;;;;;;;;4938295;29;20338;-83
2022/04/09 20:51:12;;;;;;;0.00;0.00;;;;;;;;;;4939381;29;20035;-83
2022/04/09 20:53:37;;;;;;;0.05;0.05;;;;;;;;;;4939472;29;20338;-84
2022/04/09 20:56:03;;;;;;;0.00;0.00;;;;;;;;;;4938361;29;20035;-83